Time;durP1;ratioP1;P1;durP2;ratioP2;P2;SDS_P1;SDS_P2;PMS_P1;PMS_P2;Temp;Humidity;BMP_temperature;BMP_pressure;BME280_temperature;BME280_humidity;BME280_pressure;Samples;Min_cycle;Max_cycle;Signal;HPM_P1;HPM_P2
2022/09/06 00:00:18;;;;;;;7.10;6.50;;;;;;;23.78;44.65;95728.44;6281100;27;105415;-70
2022/09/06 00:03:21;;;;;;;7.77;7.10;;;;;;;23.78;44.98;95731.91;6280028;27;103043;-68
2022/09/06 00:06:24;;;;;;;7.30;6.70;;;;;;;23.80;44.55;95731.59;6274513;27;104028;-70
2022/09/06 00:09:27;;;;;;;6.43;5.93;;;;;;;23.79;44.77;95730.81;6268250;27;103711;-70
2022/09/06 00:12:33;;;;;;;7.80;7.10;;;;;;;23.79;44.36;95730.81;6280910;27;103072;-70
2022/09/06 00:15:37;;;;;;;7.60;7.00;;;;;;;23.77;44.53;95730.31;6274767;27;103243;-68
2022/09/06 00:18:40;;;;;;;7.03;6.53;;;;;;;23.74;44.77;95733.59;6273365;27;103434;-70
2022/09/06 00:21:44;;;;;;;7.37;6.77;;;;;;;23.79;44.49;95730.03;6274024;27;103865;-69
2022/09/06 00:24:46;;;;;;;7.70;7.10;;;;;;;23.77;44.66;95737.53;6278938;27;103367;-69
2022/09/06 00:27:56;;;;;;;6.70;6.20;;;;;;;23.75;44.53;95729.03;6274447;27;102962;-70
2022/09/06 00:30:59;;;;;;;6.90;6.40;;;;;;;23.77;44.56;95729.53;6270978;27;105839;-70
2022/09/06 00:34:02;;;;;;;6.20;5.70;;;;;;;23.77;44.61;95732.19;6279951;27;104080;-69
2022/09/06 00:37:05;;;;;;;6.90;6.40;;;;;;;23.78;44.38;95731.09;6271898;27;104969;-70
2022/09/06 00:40:09;;;;;;;6.67;6.10;;;;;;;23.78;44.52;95729.22;6278610;27;103393;-69
2022/09/06 00:43:14;;;;;;;6.23;5.73;;;;;;;23.76;44.66;95728.75;6269568;27;103606;-69
2022/09/06 00:46:20;;;;;;;6.30;5.73;;;;;;;23.78;44.81;95731.91;6274091;27;103446;-70
2022/09/06 00:49:30;;;;;;;5.87;5.27;;;;;;;23.77;44.71;95727.66;6279116;27;103104;-68
2022/09/06 00:52:34;;;;;;;5.83;5.33;;;;;;;23.76;44.65;95718.06;6278099;27;103158;-67
2022/09/06 00:55:40;;;;;;;5.80;5.40;;;;;;;23.77;44.22;95716.97;6266335;27;103925;-68
2022/09/06 00:58:45;;;;;;;5.90;5.50;;;;;;;23.78;44.64;95723.88;6277014;27;103370;-69
2022/09/06 01:01:48;;;;;;;5.63;5.23;;;;;;;23.77;44.78;95727.66;6277842;27;102995;-69
2022/09/06 01:04:52;;;;;;;5.07;4.67;;;;;;;23.80;44.59;95727.03;6268172;27;103092;-70
2022/09/06 01:08:04;;;;;;;5.70;5.20;;;;;;;23.80;44.53;95727.03;6274719;27;103383;-69
2022/09/06 01:11:35;;;;;;;5.47;4.97;;;;;;;23.81;44.39;95733.97;6278957;27;103197;-69
2022/09/06 01:14:54;;;;;;;5.60;5.10;;;;;;;23.80;44.61;95728.94;6280423;27;103149;-69
2022/09/06 01:18:08;;;;;;;8.97;8.27;;;;;;;23.79;44.07;95730.81;6265656;27;103340;-69
2022/09/06 01:21:27;;;;;;;9.67;8.97;;;;;;;23.78;44.63;95734.56;6278124;27;103215;-69
2022/09/06 01:24:50;;;;;;;9.47;8.77;;;;;;;23.75;44.66;95723.69;6280136;27;103965;-69
2022/09/06 01:28:17;;;;;;;9.60;8.83;;;;;;;23.76;44.81;95734.09;6265538;27;103238;-69
2022/09/06 01:31:28;;;;;;;14.20;13.10;;;;;;;23.75;44.82;95727.16;6282535;27;103191;-70
2022/09/06 01:34:37;;;;;;;9.83;9.03;;;;;;;23.77;44.64;95724.97;6283026;27;103419;-70
2022/09/06 01:37:42;;;;;;;10.90;10.00;;;;;;;23.74;44.36;95725.56;6277169;27;103389;-68
2022/09/06 01:40:45;;;;;;;12.07;10.90;;;;;;;23.72;44.60;95725.09;6272444;27;103216;-70
2022/09/06 01:43:52;;;;;;;12.33;11.43;;;;;;;23.69;44.39;95717.69;6282696;27;103271;-69
2022/09/06 01:47:04;;;;;;;11.97;10.97;;;;;;;23.68;44.41;95709.94;6277162;27;103172;-69
2022/09/06 01:50:40;;;;;;;11.37;10.37;;;;;;;23.67;44.26;95701.13;6273786;27;103814;-68
2022/09/06 01:54:04;;;;;;;10.80;9.80;;;;;;;23.68;44.25;95702.72;6280770;27;103218;-69
2022/09/06 01:57:22;;;;;;;10.03;9.23;;;;;;;23.70;44.77;95699.75;6275580;27;103307;-69
2022/09/06 02:00:26;;;;;;;10.17;9.20;;;;;;;23.69;44.36;95703.50;6268758;27;102909;-69
2022/09/06 02:03:36;;;;;;;11.60;10.50;;;;;;;23.64;44.14;95696.38;6271779;27;104191;-70
2022/09/06 02:06:44;;;;;;;13.30;12.30;;;;;;;23.67;44.55;95700.34;6277516;27;103479;-69
2022/09/06 02:09:54;;;;;;;11.33;10.43;;;;;;;23.68;44.50;95686.66;6280432;27;103102;-69
2022/09/06 02:13:01;;;;;;;12.17;11.00;;;;;;;23.67;44.25;95689.66;6269764;27;104962;-69
2022/09/06 02:16:08;;;;;;;10.67;9.77;;;;;;;23.68;44.26;95689.34;6273595;27;103361;-69
2022/09/06 02:19:17;;;;;;;17.90;16.50;;;;;;;23.68;44.04;95685.88;6281524;27;103513;-69
2022/09/06 02:22:23;;;;;;;16.53;15.13;;;;;;;23.66;44.57;95696.09;6282910;27;104511;-69
2022/09/06 02:25:31;;;;;;;12.40;11.00;;;;;;;23.64;44.47;95691.03;6270820;27;103948;-69
2022/09/06 02:28:35;;;;;;;11.27;10.30;;;;;;;23.64;44.43;95692.91;6285597;27;103145;-70
2022/09/06 02:31:45;;;;;;;13.57;12.53;;;;;;;23.62;44.40;95695.91;6286744;27;103210;-70
2022/09/06 02:34:49;;;;;;;12.20;11.20;;;;;;;23.60;44.14;95693.53;6283337;27;103573;-67
2022/09/06 02:37:53;;;;;;;15.17;13.87;;;;;;;23.62;44.30;95698.56;6274434;27;104525;-72
2022/09/06 02:40:56;;;;;;;11.80;10.70;;;;;;;23.62;44.31;95703.91;6286341;27;103095;-69
2022/09/06 02:43:59;;;;;;;11.13;10.20;;;;;;;23.62;44.51;95695.91;6286483;27;103190;-69
2022/09/06 02:47:04;;;;;;;11.73;10.77;;;;;;;23.59;44.57;95699.97;6269877;27;105050;-69
2022/09/06 02:50:08;;;;;;;10.33;9.33;;;;;;;23.60;44.52;95701.53;6285989;27;103117;-69
2022/09/06 02:53:13;;;;;;;10.83;9.83;;;;;;;23.60;43.96;95701.53;6286957;27;103192;-70
2022/09/06 02:56:16;;;;;;;10.67;9.87;;;;;;;23.54;44.18;95704.63;6280490;27;103443;-69
2022/09/06 02:59:19;;;;;;;9.30;8.50;;;;;;;23.53;44.11;95705.72;6274790;27;103351;-69
2022/09/06 03:02:24;;;;;;;9.57;8.67;;;;;;;23.52;44.50;95707.59;6286686;27;103537;-69
2022/09/06 03:05:28;;;;;;;9.23;8.43;;;;;;;23.53;44.36;95705.72;6283095;27;103194;-68
2022/09/06 03:08:33;;;;;;;9.70;8.90;;;;;;;23.50;44.42;95698.28;6283922;27;103082;-69
2022/09/06 03:11:36;;;;;;;9.37;8.00;;;;;;;23.50;44.48;95695.59;6275949;27;103164;-68
2022/09/06 03:14:40;;;;;;;8.30;7.70;;;;;;;23.49;44.07;95691.34;6286002;27;103812;-69
2022/09/06 03:17:44;;;;;;;8.03;7.30;;;;;;;23.50;44.37;95687.59;6277784;27;105732;-69
2022/09/06 03:20:49;;;;;;;7.80;7.10;;;;;;;23.53;44.00;95695.03;6280818;27;103268;-72
2022/09/06 03:23:53;;;;;;;7.77;7.00;;;;;;;23.51;44.29;95697.19;6282645;27;103955;-71
2022/09/06 03:26:56;;;;;;;6.77;6.13;;;;;;;23.53;43.95;95695.03;6278893;27;102684;-72
2022/09/06 03:29:59;;;;;;;7.07;6.00;;;;;;;23.47;44.25;95696.22;6285360;27;103158;-71
2022/09/06 03:33:04;;;;;;;6.63;6.13;;;;;;;23.45;44.13;95698.38;6276006;27;103227;-72
2022/09/06 03:36:08;;;;;;;5.83;5.33;;;;;;;23.41;44.06;95700.88;6279606;27;102975;-70
2022/09/06 03:39:11;;;;;;;5.40;5.00;;;;;;;23.42;43.68;95704.34;6284089;27;103106;-72
2022/09/06 03:42:14;;;;;;;5.43;4.90;;;;;;;23.44;43.99;95710.94;6285463;27;104408;-71
2022/09/06 03:45:17;;;;;;;6.00;5.60;;;;;;;23.43;44.05;95711.25;6270929;27;103220;-69
2022/09/06 03:48:23;;;;;;;7.70;7.00;;;;;;;23.44;44.47;95712.84;6280920;27;103210;-67
2022/09/06 03:51:27;;;;;;;6.67;6.13;;;;;;;23.44;43.92;95708.28;6284559;27;104281;-70
2022/09/06 03:54:30;;;;;;;6.50;6.00;;;;;;;23.47;44.09;95712.25;6281134;27;104060;-66
2022/09/06 03:57:33;;;;;;;5.80;5.30;;;;;;;23.43;44.01;95714.72;6272470;27;104317;-70
2022/09/06 04:00:36;;;;;;;6.80;6.20;;;;;;;23.43;43.95;95716.59;6267970;27;103452;-71
2022/09/06 04:03:42;;;;;;;6.10;5.60;;;;;;;23.40;44.24;95718.00;6271745;27;103604;-70
2022/09/06 04:06:45;;;;;;;7.17;5.23;;;;;;;23.40;44.25;95722.53;6266371;27;103072;-68
2022/09/06 04:09:48;;;;;;;6.23;5.63;;;;;;;23.45;44.21;95725.88;6283603;27;103887;-71
2022/09/06 04:12:51;;;;;;;6.23;5.77;;;;;;;23.46;43.88;95722.13;6285093;27;103321;-70
2022/09/06 04:15:54;;;;;;;5.50;5.10;;;;;;;23.45;43.88;95723.22;6263979;27;104056;-71
2022/09/06 04:19:01;;;;;;;5.77;5.23;;;;;;;23.47;43.75;95723.72;6265896;27;103185;-70
2022/09/06 04:22:04;;;;;;;5.90;5.40;;;;;;;23.43;43.77;95722.72;6276237;27;103638;-70
2022/09/06 04:25:08;;;;;;;5.67;5.27;;;;;;;23.44;44.39;95729.66;6283258;27;103284;-68
2022/09/06 04:28:11;;;;;;;7.10;5.53;;;;;;;23.39;44.52;95720.97;6280395;27;105060;-70
2022/09/06 04:31:14;;;;;;;6.77;5.10;;;;;;;23.45;44.03;95730.44;6276106;27;103915;-69
2022/09/06 04:34:19;;;;;;;5.40;5.00;;;;;;;23.47;43.91;95729.06;6285676;27;102934;-70
2022/09/06 04:37:22;;;;;;;6.40;5.80;;;;;;;23.49;44.20;95728.75;6278637;27;103607;-70
2022/09/06 04:40:25;;;;;;;7.17;5.10;;;;;;;23.52;44.03;95728.97;6277865;27;103338;-68
2022/09/06 04:43:28;;;;;;;6.30;5.73;;;;;;;23.54;44.19;95728.69;6284737;27;103091;-70
2022/09/06 04:46:31;;;;;;;7.70;5.60;;;;;;;23.55;43.60;95722.25;6280153;27;103210;-70
2022/09/06 04:49:36;;;;;;;6.87;5.77;;;;;;;23.50;44.39;95727.66;6284592;27;102893;-69
2022/09/06 04:52:39;;;;;;;5.80;5.40;;;;;;;23.42;44.27;95723.03;6271864;27;104375;-69
2022/09/06 04:55:42;;;;;;;5.80;5.20;;;;;;;23.49;43.97;95726.09;6280501;27;103342;-69
2022/09/06 04:58:46;;;;;;;6.40;5.80;;;;;;;23.48;44.25;95724.50;6276994;27;103496;-69
2022/09/06 05:01:49;;;;;;;6.33;5.77;;;;;;;23.48;44.15;95722.63;6282691;27;103225;-70
2022/09/06 05:04:54;;;;;;;8.43;6.30;;;;;;;23.51;44.51;95719.34;6274204;27;103950;-69
2022/09/06 05:07:57;;;;;;;5.97;5.47;;;;;;;23.51;44.53;95719.34;6279674;27;104153;-73
2022/09/06 05:11:00;;;;;;;12.67;7.80;;;;;;;23.48;44.33;95719.16;6285922;27;104532;-70
2022/09/06 05:14:03;;;;;;;8.70;6.50;;;;;;;23.49;43.92;95720.75;6285033;27;103741;-70
2022/09/06 05:17:06;;;;;;;6.50;5.87;;;;;;;23.48;44.74;95717.28;6270380;27;103553;-70
2022/09/06 05:20:12;;;;;;;9.00;6.33;;;;;;;23.41;44.73;95713.44;6278448;27;103256;-70
2022/09/06 05:23:15;;;;;;;7.50;6.80;;;;;;;23.29;45.41;95712.03;6284277;27;104557;-70
2022/09/06 05:26:18;;;;;;;7.77;7.17;;;;;;;23.38;45.21;95717.50;6269313;27;104103;-69
2022/09/06 05:29:21;;;;;;;9.10;7.50;;;;;;;23.46;45.12;95706.09;6282599;27;105963;-68
2022/09/06 05:32:24;;;;;;;8.83;8.13;;;;;;;23.49;45.02;95707.38;6285191;27;106201;-69
2022/09/06 05:35:29;;;;;;;7.83;7.23;;;;;;;23.49;45.35;95710.06;6281751;27;103422;-68
2022/09/06 05:38:32;;;;;;;9.10;8.30;;;;;;;23.34;45.62;95713.03;6268076;27;106420;-69
2022/09/06 05:41:36;;;;;;;9.23;8.43;;;;;;;23.39;45.94;95715.63;6284419;27;103692;-70
2022/09/06 05:44:40;;;;;;;8.37;7.67;;;;;;;23.49;45.96;95716.19;6285591;27;103064;-69
2022/09/06 05:47:44;;;;;;;9.87;8.70;;;;;;;23.57;45.44;95725.41;6279229;27;103241;-70
2022/09/06 05:50:59;;;;;;;8.20;7.43;;;;;;;23.57;45.31;95720.06;6278080;27;102958;-70
2022/09/06 05:54:02;;;;;;;9.67;8.40;;;;;;;23.61;45.56;95718.38;6285324;27;103289;-69
2022/09/06 05:57:06;;;;;;;8.30;7.60;;;;;;;23.68;46.17;95718.75;6281589;27;103406;-68
2022/09/06 06:00:11;;;;;;;8.60;7.80;;;;;;;23.73;46.06;95717.88;6279598;27;103975;-71
2022/09/06 06:03:14;;;;;;;9.27;8.37;;;;;;;23.78;46.33;95710.53;6283842;27;103170;-70
2022/09/06 06:06:18;;;;;;;8.93;8.23;;;;;;;23.78;45.93;95704.38;6283161;27;103109;-70
2022/09/06 06:09:21;;;;;;;9.23;8.43;;;;;;;23.80;45.80;95708.34;6289347;27;102933;-72
2022/09/06 06:12:25;;;;;;;9.07;8.20;;;;;;;23.97;45.25;95710.38;6280002;27;103305;-71
2022/09/06 06:15:28;;;;;;;7.40;6.80;;;;;;;24.08;45.54;95703.75;6285281;27;103158;-67
2022/09/06 06:18:31;;;;;;;7.70;7.10;;;;;;;24.22;45.61;95703.72;6285991;27;103106;-69
2022/09/06 06:21:37;;;;;;;8.60;7.77;;;;;;;24.29;45.21;95701.38;6286918;27;103386;-71
2022/09/06 06:24:40;;;;;;;8.10;6.90;;;;;;;24.37;45.12;95700.69;6276628;27;103035;-72
2022/09/06 06:27:43;;;;;;;7.23;6.63;;;;;;;24.42;45.28;95700.53;6280900;27;104091;-71
2022/09/06 06:30:46;;;;;;;8.10;6.83;;;;;;;24.47;45.18;95692.38;6287013;27;103134;-71
2022/09/06 06:33:49;;;;;;;7.10;6.40;;;;;;;24.54;45.15;95707.25;6287183;27;106241;-70
2022/09/06 06:36:54;;;;;;;7.50;6.70;;;;;;;24.58;45.73;95697.50;6278046;27;103819;-68
2022/09/06 06:39:58;;;;;;;7.27;6.67;;;;;;;24.63;45.50;95694.69;6289427;27;103012;-71
2022/09/06 06:43:02;;;;;;;7.07;6.47;;;;;;;24.70;45.54;95695.09;6289911;27;103458;-70
2022/09/06 06:46:14;;;;;;;8.70;6.13;;;;;;;24.75;45.81;95692.28;6274345;27;103052;-71
2022/09/06 06:49:18;;;;;;;6.80;6.30;;;;;;;24.80;45.90;95692.16;6288632;27;103134;-72
2022/09/06 06:52:23;;;;;;;6.87;6.20;;;;;;;24.80;45.84;95692.16;6289284;27;103096;-70
2022/09/06 06:55:26;;;;;;;6.90;6.30;;;;;;;24.84;45.46;95695.78;6285855;27;104030;-67
2022/09/06 06:58:30;;;;;;;7.07;6.40;;;;;;;24.88;45.63;95702.13;6275738;27;103173;-70
2022/09/06 07:01:35;;;;;;;6.63;6.13;;;;;;;24.94;45.32;95697.41;6288680;27;104131;-71
2022/09/06 07:04:38;;;;;;;7.03;6.43;;;;;;;24.99;45.60;95697.28;6290259;27;103267;-71
2022/09/06 07:07:43;;;;;;;7.30;6.80;;;;;;;25.01;45.55;95700.44;6282630;27;103165;-70
2022/09/06 07:10:46;;;;;;;7.47;6.77;;;;;;;25.08;45.55;95709.63;6279682;27;102759;-71
2022/09/06 07:13:49;;;;;;;6.90;6.40;;;;;;;25.11;45.63;95696.69;6289129;27;103277;-71
2022/09/06 07:16:57;;;;;;;7.50;6.90;;;;;;;25.17;45.90;95698.13;6282552;27;103875;-71
2022/09/06 07:20:00;;;;;;;8.17;7.57;;;;;;;25.17;45.74;95714.22;6277842;27;103275;-71
2022/09/06 07:23:20;;;;;;;8.43;7.73;;;;;;;25.21;45.53;95713.31;6290361;27;102874;-71
2022/09/06 07:26:43;;;;;;;9.13;8.43;;;;;;;25.25;45.40;95708.09;6282658;27;103086;-71
2022/09/06 07:30:07;;;;;;;9.20;8.40;;;;;;;25.28;45.15;95710.16;6288002;27;104281;-71
2022/09/06 07:33:10;;;;;;;8.90;8.10;;;;;;;25.32;45.68;95716.47;6278363;27;105102;-69
2022/09/06 07:36:13;;;;;;;12.53;9.07;;;;;;;25.28;45.48;95708.28;6283255;27;103185;-71
2022/09/06 07:39:18;;;;;;;9.83;8.93;;;;;;;25.29;44.93;95711.75;6287682;27;103197;-71
2022/09/06 07:42:21;;;;;;;9.53;8.73;;;;;;;25.33;44.82;95713.47;6283355;27;103078;-69
2022/09/06 07:45:24;;;;;;;9.03;8.23;;;;;;;25.36;44.86;95712.88;6279976;27;104469;-71
2022/09/06 07:48:30;;;;;;;9.50;8.70;;;;;;;25.39;44.64;95711.50;6285867;27;103791;-71
2022/09/06 07:51:33;;;;;;;9.27;8.27;;;;;;;25.42;44.39;95713.56;6287909;27;102921;-72
2022/09/06 07:54:37;;;;;;;10.13;9.17;;;;;;;25.45;43.98;95710.25;6278401;27;103140;-71
2022/09/06 07:57:40;;;;;;;9.63;8.47;;;;;;;25.47;44.06;95702.69;6282632;27;103723;-72
2022/09/06 08:00:43;;;;;;;10.27;9.37;;;;;;;25.51;44.04;95706.31;6287895;27;102764;-72
2022/09/06 08:03:47;;;;;;;10.30;9.40;;;;;;;25.53;44.35;95701.44;6287872;27;102917;-71
2022/09/06 08:06:52;;;;;;;9.40;8.50;;;;;;;25.55;43.94;95696.56;6271208;27;104261;-72
2022/09/06 08:10:17;;;;;;;11.10;8.97;;;;;;;25.59;43.98;95694.84;6287597;27;102852;-68
2022/09/06 08:13:20;;;;;;;8.97;8.17;;;;;;;25.61;43.54;95687.28;6287119;27;108086;-68
2022/09/06 08:16:26;;;;;;;9.20;8.50;;;;;;;25.59;43.81;95697.53;6276938;27;104200;-69
2022/09/06 08:19:29;;;;;;;9.23;8.23;;;;;;;25.63;43.67;95685.06;6282930;27;102966;-71
2022/09/06 08:22:33;;;;;;;9.77;8.97;;;;;;;25.64;43.61;95696.59;6286800;27;103031;-71
2022/09/06 08:25:37;;;;;;;9.47;8.63;;;;;;;25.65;43.29;95693.59;6278546;27;103244;-71
2022/09/06 08:28:40;;;;;;;9.20;8.30;;;;;;;25.66;43.41;95691.69;6276603;27;103820;-71
2022/09/06 08:31:44;;;;;;;9.67;8.87;;;;;;;25.68;43.24;95690.28;6286975;27;103598;-71
2022/09/06 08:34:47;;;;;;;9.73;8.87;;;;;;;25.66;43.30;95679.06;6286464;27;102984;-69
2022/09/06 08:37:51;;;;;;;9.37;8.57;;;;;;;25.67;43.48;95672.63;6283003;27;102958;-70
2022/09/06 08:41:07;;;;;;;9.40;8.60;;;;;;;25.69;43.62;95675.75;6276487;27;103824;-71
2022/09/06 08:44:14;;;;;;;9.17;8.33;;;;;;;25.71;43.37;95674.66;6287291;27;103354;-70
2022/09/06 08:47:37;;;;;;;8.60;7.90;;;;;;;25.72;42.86;95665.53;6281276;27;104224;-71
2022/09/06 08:50:44;;;;;;;9.43;8.63;;;;;;;25.74;43.53;95669.47;6279614;27;103097;-65
2022/09/06 08:53:47;;;;;;;8.60;7.90;;;;;;;25.76;43.24;95661.13;6287207;27;103231;-71
2022/09/06 08:57:06;;;;;;;8.70;8.00;;;;;;;25.76;43.03;95655.75;6281319;27;103527;-72
2022/09/06 09:00:11;;;;;;;9.03;7.90;;;;;;;25.72;42.88;95644.09;6286903;27;103263;-70
2022/09/06 09:03:18;;;;;;;8.67;7.87;;;;;;;25.73;43.12;95645.66;6276870;27;104453;-71
2022/09/06 09:06:23;;;;;;;8.40;7.70;;;;;;;25.74;42.69;95641.88;6282218;27;103150;-70
2022/09/06 09:09:30;;;;;;;8.10;7.40;;;;;;;25.74;42.71;95637.31;6281182;27;103169;-72
2022/09/06 09:12:45;;;;;;;8.00;7.40;;;;;;;25.72;42.27;95620.75;6262155;27;102950;-72
2022/09/06 09:15:48;;;;;;;8.10;7.40;;;;;;;25.76;43.18;95618.22;6253551;27;105244;-72
2022/09/06 09:18:53;;;;;;;8.13;7.33;;;;;;;25.79;42.60;95609.56;6261529;27;103308;-72
2022/09/06 09:21:57;;;;;;;7.73;7.13;;;;;;;25.77;42.57;95617.13;6282999;27;103495;-72
2022/09/06 09:25:02;;;;;;;8.67;7.87;;;;;;;25.77;42.57;95607.19;6272124;27;103307;-70
2022/09/06 09:28:15;;;;;;;7.80;7.20;;;;;;;25.79;42.28;95604.97;6279533;27;102987;-69
2022/09/06 09:31:33;;;;;;;6.90;6.17;;;;;;;25.79;42.83;95602.28;6286671;27;103167;-72
2022/09/06 09:34:39;;;;;;;8.47;7.63;;;;;;;25.79;42.31;95599.63;6286415;27;102657;-72
2022/09/06 09:37:43;;;;;;;7.07;6.53;;;;;;;25.76;42.89;95594.88;6269373;27;103231;-72
2022/09/06 09:40:51;;;;;;;7.40;6.80;;;;;;;25.76;42.64;95588.75;6286614;27;102957;-71
2022/09/06 09:43:59;;;;;;;7.33;6.83;;;;;;;25.76;42.36;95592.22;6285872;27;103218;-72
2022/09/06 09:47:23;;;;;;;8.00;7.40;;;;;;;25.77;42.72;95582.28;6270645;27;104058;-72
2022/09/06 09:50:29;;;;;;;7.07;6.53;;;;;;;25.76;42.65;95580.69;6282739;27;104324;-72
2022/09/06 09:53:32;;;;;;;7.27;6.67;;;;;;;25.75;42.57;95589.84;6286200;27;103038;-72
2022/09/06 09:56:43;;;;;;;7.60;7.00;;;;;;;25.75;42.91;95585.25;6279388;27;103265;-71
2022/09/06 09:59:55;;;;;;;7.80;7.10;;;;;;;25.72;42.65;95574.41;6277111;27;103424;-72
2022/09/06 10:02:59;;;;;;;7.00;6.40;;;;;;;25.70;42.85;95569.31;6286216;27;103006;-72
2022/09/06 10:06:02;;;;;;;7.00;6.50;;;;;;;25.73;42.76;95570.59;6281237;27;103993;-71
2022/09/06 10:09:15;;;;;;;7.10;6.40;;;;;;;25.72;42.44;95569.03;6285116;27;102993;-72
2022/09/06 10:12:29;;;;;;;7.03;6.53;;;;;;;25.69;42.55;95563.16;6275271;27;102823;-70
2022/09/06 10:15:36;;;;;;;7.07;6.57;;;;;;;25.68;42.44;95564.28;6286436;27;104001;-71
2022/09/06 10:18:41;;;;;;;7.93;6.97;;;;;;;25.67;42.44;95560.03;6286760;27;103297;-71
2022/09/06 10:21:44;;;;;;;7.00;6.50;;;;;;;25.66;42.67;95558.44;6277481;27;104286;-71
2022/09/06 10:24:59;;;;;;;7.20;6.70;;;;;;;25.65;42.21;95556.09;6287570;27;102993;-71
2022/09/06 10:28:31;;;;;;;7.00;6.50;;;;;;;25.63;42.54;95553.72;6289567;27;102982;-70
2022/09/06 10:31:48;;;;;;;6.73;6.23;;;;;;;25.62;42.37;95549.47;6288979;27;103027;-71
2022/09/06 10:35:09;;;;;;;6.90;6.40;;;;;;;25.59;42.43;95555.47;6277012;27;103113;-71
2022/09/06 10:38:31;;;;;;;6.77;6.27;;;;;;;25.58;42.12;95542.38;6293815;27;103023;-70
2022/09/06 10:42:01;;;;;;;7.83;7.23;;;;;;;25.55;42.47;95537.66;6294315;27;102650;-71
2022/09/06 10:45:17;;;;;;;7.37;6.87;;;;;;;25.54;42.44;95544.09;6283857;27;104060;-72
2022/09/06 10:48:27;;;;;;;7.00;6.50;;;;;;;25.52;42.43;95536.38;6293276;27;104077;-72
2022/09/06 10:51:38;;;;;;;6.43;5.83;;;;;;;25.49;42.02;95537.00;6293843;27;103150;-72
2022/09/06 10:54:45;;;;;;;6.67;6.17;;;;;;;25.48;41.69;95535.44;6292734;27;103295;-71
2022/09/06 10:57:53;;;;;;;6.27;5.80;;;;;;;25.48;41.60;95537.31;6282470;27;105903;-72
2022/09/06 11:01:26;;;;;;;6.40;6.00;;;;;;;25.45;42.05;95528.03;6294515;27;103015;-71
2022/09/06 11:04:35;;;;;;;5.90;5.50;;;;;;;25.44;41.21;95526.44;6293047;27;103071;-72
2022/09/06 11:08:01;;;;;;;6.20;5.80;;;;;;;25.43;41.40;95524.88;6282993;27;102785;-71
2022/09/06 11:11:34;;;;;;;6.10;5.67;;;;;;;25.41;41.59;95516.38;6293733;27;103378;-72
2022/09/06 11:14:39;;;;;;;6.40;5.90;;;;;;;25.41;41.52;95520.94;6292749;27;102954;-72
2022/09/06 11:17:49;;;;;;;6.37;5.90;;;;;;;25.38;41.41;95511.66;6288621;27;103526;-72
2022/09/06 11:21:12;;;;;;;6.13;5.63;;;;;;;25.38;41.79;95517.00;6287249;27;103777;-72
2022/09/06 11:24:32;;;;;;;6.60;6.10;;;;;;;25.36;41.86;95511.94;6292161;27;103173;-68
2022/09/06 11:27:39;;;;;;;6.70;6.30;;;;;;;25.32;42.23;95510.19;6292767;27;103230;-72
2022/09/06 11:30:46;;;;;;;7.77;7.27;;;;;;;25.33;42.16;95506.41;6281683;27;103562;-73
2022/09/06 11:34:02;;;;;;;7.03;6.53;;;;;;;25.32;41.75;95505.59;6292957;27;103122;-72
2022/09/06 11:37:23;;;;;;;7.60;7.00;;;;;;;25.32;41.98;95497.56;6292628;27;103032;-73
2022/09/06 11:40:29;;;;;;;7.77;7.17;;;;;;;25.31;41.90;95497.88;6289667;27;105713;-70
2022/09/06 11:43:47;;;;;;;7.23;6.73;;;;;;;25.29;42.15;95503.56;6288315;27;104587;-71
2022/09/06 11:47:01;;;;;;;7.57;7.00;;;;;;;25.28;42.39;95495.84;6293137;27;104605;-70
2022/09/06 11:50:25;;;;;;;7.33;6.83;;;;;;;25.26;42.21;95501.53;6292595;27;102994;-71
2022/09/06 11:53:31;;;;;;;7.00;6.50;;;;;;;25.27;42.16;95488.91;6282032;27;103518;-71
2022/09/06 11:56:40;;;;;;;7.37;6.87;;;;;;;25.26;42.10;95488.13;6292687;27;103047;-71
2022/09/06 11:59:59;;;;;;;7.50;7.00;;;;;;;25.27;42.26;95489.69;6292116;27;103298;-70
2022/09/06 12:03:03;;;;;;;7.07;6.57;;;;;;;25.25;42.02;95480.41;6290031;27;103744;-69
2022/09/06 12:06:34;;;;;;;6.60;6.10;;;;;;;25.23;41.63;95483.41;6286441;27;102817;-71
2022/09/06 12:09:41;;;;;;;7.23;6.73;;;;;;;25.24;41.95;95473.47;6290959;27;103000;-71
2022/09/06 12:12:47;;;;;;;7.47;6.87;;;;;;;25.24;41.85;95473.47;6291905;27;103138;-71
2022/09/06 12:15:55;;;;;;;6.70;6.20;;;;;;;25.22;41.72;95475.69;6282113;27;103597;-72
2022/09/06 12:19:00;;;;;;;7.43;6.83;;;;;;;25.22;42.31;95470.31;6293327;27;103105;-72
2022/09/06 12:22:03;;;;;;;6.80;6.30;;;;;;;25.21;42.08;95472.22;6291655;27;103017;-72
2022/09/06 12:25:16;;;;;;;7.20;6.70;;;;;;;25.19;42.00;95469.03;6290113;27;103036;-71
2022/09/06 12:28:27;;;;;;;7.97;7.17;;;;;;;25.17;41.89;95468.56;6278097;27;103248;-72
2022/09/06 12:31:38;;;;;;;7.13;6.60;;;;;;;25.17;41.93;95467.78;6288065;27;103022;-72
2022/09/06 12:34:45;;;;;;;7.23;6.73;;;;;;;25.14;42.19;95473.78;6289625;27;103167;-71
2022/09/06 12:37:53;;;;;;;7.10;6.60;;;;;;;25.14;42.26;95468.41;6279874;27;103151;-70
2022/09/06 12:40:59;;;;;;;6.20;5.77;;;;;;;25.11;42.14;95469.84;6288757;27;103920;-70
2022/09/06 12:44:06;;;;;;;7.10;6.60;;;;;;;25.12;42.01;95466.06;6288846;27;103218;-69
2022/09/06 12:47:14;;;;;;;7.33;6.73;;;;;;;25.13;42.25;95469.53;6288094;27;103517;-70
2022/09/06 12:50:19;;;;;;;7.53;6.93;;;;;;;25.08;42.08;95463.22;6277230;27;103714;-70
2022/09/06 12:53:24;;;;;;;6.70;6.20;;;;;;;25.07;42.08;95456.28;6288203;27;103851;-70
2022/09/06 12:56:31;;;;;;;6.90;6.30;;;;;;;25.06;41.91;95457.41;6287341;27;103031;-71
2022/09/06 12:59:34;;;;;;;6.90;6.30;;;;;;;25.07;42.04;95458.97;6286754;27;102773;-71
2022/09/06 13:02:43;;;;;;;6.60;6.10;;;;;;;25.07;41.98;95458.97;6277520;27;103068;-70
2022/09/06 13:05:47;;;;;;;6.67;5.90;;;;;;;25.06;41.95;95451.25;6287509;27;103193;-71
2022/09/06 13:08:54;;;;;;;6.40;6.00;;;;;;;25.05;41.79;95455.81;6287458;27;102952;-71
2022/09/06 13:12:05;;;;;;;7.20;6.27;;;;;;;25.07;42.57;95461.66;6277817;27;103255;-70
2022/09/06 13:15:14;;;;;;;7.80;7.10;;;;;;;25.08;40.94;95457.09;6286694;27;103288;-71
2022/09/06 13:18:22;;;;;;;4.80;4.47;;;;;;;25.06;40.89;95440.53;6286935;27;103007;-70
2022/09/06 13:21:29;;;;;;;6.07;5.57;;;;;;;25.09;40.63;95451.41;6286949;27;103701;-71
2022/09/06 13:24:55;;;;;;;3.87;3.57;;;;;;;25.00;40.19;95445.25;6277197;27;102915;-73
2022/09/06 13:28:01;;;;;;;3.83;3.53;;;;;;;25.02;39.95;95439.56;6280954;27;102879;-73
2022/09/06 13:31:07;;;;;;;4.00;3.70;;;;;;;25.03;39.64;95436.59;6287333;27;104106;-72
2022/09/06 13:34:11;;;;;;;5.17;4.30;;;;;;;25.04;39.47;95442.75;6282696;27;103017;-72
2022/09/06 13:37:14;;;;;;;4.67;4.27;;;;;;;25.04;39.65;95440.06;6281653;27;103215;-72
2022/09/06 13:40:40;;;;;;;5.30;4.90;;;;;;;25.05;39.98;95439.75;6287117;27;103130;-70
2022/09/06 13:44:07;;;;;;;4.83;4.43;;;;;;;25.04;40.46;95443.53;6286904;27;104231;-71
2022/09/06 13:47:10;;;;;;;5.57;5.07;;;;;;;25.02;40.30;95448.41;6276740;27;103489;-70
2022/09/06 13:50:14;;;;;;;4.90;4.60;;;;;;;25.02;40.25;95442.25;6286900;27;103193;-70
2022/09/06 13:53:19;;;;;;;5.07;4.70;;;;;;;24.98;40.59;95436.75;6286467;27;103151;-71
2022/09/06 13:56:22;;;;;;;5.37;4.90;;;;;;;24.98;40.42;95442.09;6286657;27;102965;-71
2022/09/06 13:59:27;;;;;;;5.90;5.40;;;;;;;24.99;40.73;95437.53;6278059;27;105402;-71
2022/09/06 14:02:31;;;;;;;5.17;4.77;;;;;;;24.96;40.87;95427.47;6287455;27;103444;-72
2022/09/06 14:05:37;;;;;;;6.00;4.77;;;;;;;24.98;41.10;95430.59;6286578;27;103351;-71
2022/09/06 14:08:40;;;;;;;5.23;4.83;;;;;;;24.96;40.80;95425.56;6278080;27;103829;-65
2022/09/06 14:12:32;;;;;;;4.97;4.57;;;;;;;24.96;41.06;95430.91;6291481;27;104299;-72
2022/09/06 14:15:36;;;;;;;4.27;3.97;;;;;;;24.95;41.14;95426.66;6290393;27;102776;-72
2022/09/06 14:18:40;;;;;;;5.53;5.10;;;;;;;24.98;41.08;95422.56;6290820;27;103003;-71
2022/09/06 14:21:43;;;;;;;5.43;5.03;;;;;;;24.99;41.18;95422.25;6279985;27;106050;-72
2022/09/06 14:24:47;;;;;;;5.90;5.40;;;;;;;24.99;40.90;95424.16;6291278;27;105831;-72
2022/09/06 14:27:50;;;;;;;5.20;4.80;;;;;;;24.96;41.01;95420.22;6290873;27;103423;-72
2022/09/06 14:30:55;;;;;;;5.37;4.87;;;;;;;24.96;40.95;95425.56;6285523;27;103172;-69